sensor_id;sensor_type;location;lat;lon;timestamp;temperature;humidity
75262;DHT22;63859;51.064;4.580;2023-05-10T00:01:25;13.20;99.90
75262;DHT22;63859;51.064;4.580;2023-05-10T00:03:51;13.20;99.90
75262;DHT22;63859;51.064;4.580;2023-05-10T00:06:17;13.10;99.90
75262;DHT22;63859;51.064;4.580;2023-05-10T00:08:43;13.20;99.90
75262;DHT22;63859;51.064;4.580;2023-05-10T00:11:09;13.20;99.90
75262;DHT22;63859;51.064;4.580;2023-05-10T00:13:36;13.20;99.90
75262;DHT22;63859;51.064;4.580;2023-05-10T00:16:01;13.20;99.90
75262;DHT22;63859;51.064;4.580;2023-05-10T00:18:27;13.10;99.90
75262;DHT22;63859;51.064;4.580;2023-05-10T00:20:53;13.10;99.90
75262;DHT22;63859;51.064;4.580;2023-05-10T00:23:18;13.20;99.90
75262;DHT22;63859;51.064;4.580;2023-05-10T00:25:44;13.10;99.90
75262;DHT22;63859;51.064;4.580;2023-05-10T00:28:10;13.20;99.90
75262;DHT22;63859;51.064;4.580;2023-05-10T00:30:35;13.10;99.90
75262;DHT22;63859;51.064;4.580;2023-05-10T00:33:01;13.20;99.90
75262;DHT22;63859;51.064;4.580;2023-05-10T00:35:28;13.10;99.90
75262;DHT22;63859;51.064;4.580;2023-05-10T00:37:54;13.20;99.90
75262;DHT22;63859;51.064;4.580;2023-05-10T00:40:19;13.10;99.90
75262;DHT22;63859;51.064;4.580;2023-05-10T00:42:46;13.20;99.90
75262;DHT22;63859;51.064;4.580;2023-05-10T00:45:12;13.10;99.90
75262;DHT22;63859;51.064;4.580;2023-05-10T00:47:38;13.10;99.90
75262;DHT22;63859;51.064;4.580;2023-05-10T00:50:05;13.20;99.90
75262;DHT22;63859;51.064;4.580;2023-05-10T00:52:31;13.10;99.90
75262;DHT22;63859;51.064;4.580;2023-05-10T00:54:57;13.20;99.90
75262;DHT22;63859;51.064;4.580;2023-05-10T00:57:24;13.20;99.90
75262;DHT22;63859;51.064;4.580;2023-05-10T00:59:50;13.10;99.90
75262;DHT22;63859;51.064;4.580;2023-05-10T01:02:16;13.10;99.90
75262;DHT22;63859;51.064;4.580;2023-05-10T01:04:43;13.10;99.90
75262;DHT22;63859;51.064;4.580;2023-05-10T01:07:09;13.10;99.90
75262;DHT22;63859;51.064;4.580;2023-05-10T01:09:34;13.10;99.90
75262;DHT22;63859;51.064;4.580;2023-05-10T01:12:01;13.00;99.90
75262;DHT22;63859;51.064;4.580;2023-05-10T01:14:28;13.00;99.90
75262;DHT22;63859;51.064;4.580;2023-05-10T01:16:54;13.00;99.90
75262;DHT22;63859;51.064;4.580;2023-05-10T01:19:26;13.00;99.90
75262;DHT22;63859;51.064;4.580;2023-05-10T01:25:22;13.00;99.90
75262;DHT22;63859;51.064;4.580;2023-05-10T01:28:26;12.90;99.90
75262;DHT22;63859;51.064;4.580;2023-05-10T01:34:00;12.90;99.90
75262;DHT22;63859;51.064;4.580;2023-05-10T01:36:31;12.90;99.90
75262;DHT22;63859;51.064;4.580;2023-05-10T01:39:15;12.90;99.90
75262;DHT22;63859;51.064;4.580;2023-05-10T01:44:38;12.90;99.90
75262;DHT22;63859;51.064;4.580;2023-05-10T01:47:11;12.90;99.90
75262;DHT22;63859;51.064;4.580;2023-05-10T01:49:56;12.80;99.90
75262;DHT22;63859;51.064;4.580;2023-05-10T01:52:30;12.90;99.90
75262;DHT22;63859;51.064;4.580;2023-05-10T01:55:01;12.90;99.90
75262;DHT22;63859;51.064;4.580;2023-05-10T01:57:33;12.80;99.90
75262;DHT22;63859;51.064;4.580;2023-05-10T02:00:00;12.80;99.90
75262;DHT22;63859;51.064;4.580;2023-05-10T02:02:27;12.80;99.90
75262;DHT22;63859;51.064;4.580;2023-05-10T02:04:54;12.90;99.90
75262;DHT22;63859;51.064;4.580;2023-05-10T02:07:22;12.90;99.90
75262;DHT22;63859;51.064;4.580;2023-05-10T02:09:49;12.80;99.90
75262;DHT22;63859;51.064;4.580;2023-05-10T02:12:16;12.80;99.90
75262;DHT22;63859;51.064;4.580;2023-05-10T02:14:44;12.80;99.90
75262;DHT22;63859;51.064;4.580;2023-05-10T02:17:11;12.80;99.90
75262;DHT22;63859;51.064;4.580;2023-05-10T02:19:40;12.90;99.90
75262;DHT22;63859;51.064;4.580;2023-05-10T02:22:08;12.80;99.90
75262;DHT22;63859;51.064;4.580;2023-05-10T02:24:35;12.80;99.90
75262;DHT22;63859;51.064;4.580;2023-05-10T02:27:03;12.90;99.90
75262;DHT22;63859;51.064;4.580;2023-05-10T02:29:31;12.90;99.90
75262;DHT22;63859;51.064;4.580;2023-05-10T02:31:58;12.80;99.90
75262;DHT22;63859;51.064;4.580;2023-05-10T02:34:26;12.90;99.90
75262;DHT22;63859;51.064;4.580;2023-05-10T02:36:53;12.80;99.90
75262;DHT22;63859;51.064;4.580;2023-05-10T02:39:21;12.80;99.90
75262;DHT22;63859;51.064;4.580;2023-05-10T02:41:49;12.80;99.90
75262;DHT22;63859;51.064;4.580;2023-05-10T02:44:18;12.80;99.90
75262;DHT22;63859;51.064;4.580;2023-05-10T02:46:45;12.80;99.90
75262;DHT22;63859;51.064;4.580;2023-05-10T02:49:11;12.80;99.90
75262;DHT22;63859;51.064;4.580;2023-05-10T02:51:42;12.80;99.90
75262;DHT22;63859;51.064;4.580;2023-05-10T02:54:18;12.80;99.90
75262;DHT22;63859;51.064;4.580;2023-05-10T02:56:49;12.80;99.90
75262;DHT22;63859;51.064;4.580;2023-05-10T02:59:16;12.80;99.90
75262;DHT22;63859;51.064;4.580;2023-05-10T03:01:41;12.80;99.90
75262;DHT22;63859;51.064;4.580;2023-05-10T03:04:07;12.80;99.90
75262;DHT22;63859;51.064;4.580;2023-05-10T03:06:33;12.80;99.90
75262;DHT22;63859;51.064;4.580;2023-05-10T03:08:59;12.80;99.90
75262;DHT22;63859;51.064;4.580;2023-05-10T03:11:30;12.80;99.90
75262;DHT22;63859;51.064;4.580;2023-05-10T03:17:19;12.70;99.90
75262;DHT22;63859;51.064;4.580;2023-05-10T03:19:56;12.80;99.90
75262;DHT22;63859;51.064;4.580;2023-05-10T03:22:34;12.70;99.90
75262;DHT22;63859;51.064;4.580;2023-05-10T03:25:05;12.70;99.90
75262;DHT22;63859;51.064;4.580;2023-05-10T03:27:32;12.70;99.90
75262;DHT22;63859;51.064;4.580;2023-05-10T03:29:59;12.70;99.90
75262;DHT22;63859;51.064;4.580;2023-05-10T03:32:28;12.70;99.90
75262;DHT22;63859;51.064;4.580;2023-05-10T03:34:54;12.60;99.90
75262;DHT22;63859;51.064;4.580;2023-05-10T03:37:20;12.60;99.90
75262;DHT22;63859;51.064;4.580;2023-05-10T03:39:46;12.70;99.90
75262;DHT22;63859;51.064;4.580;2023-05-10T03:42:11;12.70;99.90
75262;DHT22;63859;51.064;4.580;2023-05-10T03:44:38;12.70;99.90
75262;DHT22;63859;51.064;4.580;2023-05-10T03:47:04;12.70;99.90
75262;DHT22;63859;51.064;4.580;2023-05-10T03:49:30;12.70;99.90
75262;DHT22;63859;51.064;4.580;2023-05-10T03:51:55;12.70;99.90
75262;DHT22;63859;51.064;4.580;2023-05-10T03:54:21;12.70;99.90
75262;DHT22;63859;51.064;4.580;2023-05-10T03:56:47;12.70;99.90
75262;DHT22;63859;51.064;4.580;2023-05-10T03:59:15;12.70;99.90
75262;DHT22;63859;51.064;4.580;2023-05-10T04:01:41;12.70;99.90
75262;DHT22;63859;51.064;4.580;2023-05-10T04:04:06;12.70;99.90
75262;DHT22;63859;51.064;4.580;2023-05-10T04:06:32;12.70;99.90
75262;DHT22;63859;51.064;4.580;2023-05-10T04:08:58;12.70;99.90
75262;DHT22;63859;51.064;4.580;2023-05-10T04:11:25;12.70;99.90
75262;DHT22;63859;51.064;4.580;2023-05-10T04:13:51;12.70;99.90
75262;DHT22;63859;51.064;4.580;2023-05-10T04:16:17;12.70;99.90
75262;DHT22;63859;51.064;4.580;2023-05-10T04:18:42;12.70;99.90
75262;DHT22;63859;51.064;4.580;2023-05-10T04:21:12;12.60;99.90
75262;DHT22;63859;51.064;4.580;2023-05-10T04:23:39;12.70;99.90
75262;DHT22;63859;51.064;4.580;2023-05-10T04:26:05;12.70;99.90
75262;DHT22;63859;51.064;4.580;2023-05-10T04:28:30;12.70;99.90
75262;DHT22;63859;51.064;4.580;2023-05-10T04:31:03;12.70;99.90
75262;DHT22;63859;51.064;4.580;2023-05-10T04:33:30;12.70;99.90
75262;DHT22;63859;51.064;4.580;2023-05-10T04:35:56;12.60;99.90
75262;DHT22;63859;51.064;4.580;2023-05-10T04:38:21;12.60;99.90
75262;DHT22;63859;51.064;4.580;2023-05-10T04:40:47;12.60;99.90
75262;DHT22;63859;51.064;4.580;2023-05-10T04:43:13;12.60;99.90
75262;DHT22;63859;51.064;4.580;2023-05-10T04:45:38;12.60;99.90
75262;DHT22;63859;51.064;4.580;2023-05-10T04:48:04;12.60;99.90
75262;DHT22;63859;51.064;4.580;2023-05-10T04:50:30;12.60;99.90
75262;DHT22;63859;51.064;4.580;2023-05-10T04:52:57;12.60;99.90
75262;DHT22;63859;51.064;4.580;2023-05-10T04:55:23;12.60;99.90
75262;DHT22;63859;51.064;4.580;2023-05-10T04:57:48;12.60;99.90
75262;DHT22;63859;51.064;4.580;2023-05-10T05:00:14;12.70;99.90
75262;DHT22;63859;51.064;4.580;2023-05-10T05:02:44;12.70;99.90
75262;DHT22;63859;51.064;4.580;2023-05-10T05:05:11;12.70;99.90
75262;DHT22;63859;51.064;4.580;2023-05-10T05:07:36;12.70;99.90
75262;DHT22;63859;51.064;4.580;2023-05-10T05:10:07;12.70;99.90
75262;DHT22;63859;51.064;4.580;2023-05-10T05:12:34;12.70;99.90
75262;DHT22;63859;51.064;4.580;2023-05-10T05:14:59;12.70;99.90
75262;DHT22;63859;51.064;4.580;2023-05-10T05:17:25;12.80;99.90
75262;DHT22;63859;51.064;4.580;2023-05-10T05:19:51;12.70;99.90
75262;DHT22;63859;51.064;4.580;2023-05-10T05:22:17;12.80;99.90
75262;DHT22;63859;51.064;4.580;2023-05-10T05:24:42;12.80;99.90
75262;DHT22;63859;51.064;4.580;2023-05-10T05:27:08;12.80;99.90
75262;DHT22;63859;51.064;4.580;2023-05-10T05:29:34;12.80;99.90
75262;DHT22;63859;51.064;4.580;2023-05-10T05:32:00;12.80;99.90
75262;DHT22;63859;51.064;4.580;2023-05-10T05:34:27;12.80;99.90
75262;DHT22;63859;51.064;4.580;2023-05-10T05:36:52;12.80;99.90
75262;DHT22;63859;51.064;4.580;2023-05-10T05:39:19;12.80;99.90
75262;DHT22;63859;51.064;4.580;2023-05-10T05:41:44;12.80;99.90
75262;DHT22;63859;51.064;4.580;2023-05-10T05:44:11;12.80;99.90
75262;DHT22;63859;51.064;4.580;2023-05-10T05:46:37;12.80;99.90
75262;DHT22;63859;51.064;4.580;2023-05-10T05:49:02;12.80;99.90
75262;DHT22;63859;51.064;4.580;2023-05-10T05:51:28;12.80;99.90
75262;DHT22;63859;51.064;4.580;2023-05-10T05:53:54;12.90;99.90
75262;DHT22;63859;51.064;4.580;2023-05-10T05:56:19;12.90;99.90
75262;DHT22;63859;51.064;4.580;2023-05-10T05:58:50;12.90;99.90
75262;DHT22;63859;51.064;4.580;2023-05-10T06:01:16;13.00;99.90
75262;DHT22;63859;51.064;4.580;2023-05-10T06:03:41;13.00;99.90
75262;DHT22;63859;51.064;4.580;2023-05-10T06:06:08;13.00;99.90
75262;DHT22;63859;51.064;4.580;2023-05-10T06:08:33;13.00;99.90
75262;DHT22;63859;51.064;4.580;2023-05-10T06:11:00;13.00;99.90
75262;DHT22;63859;51.064;4.580;2023-05-10T06:13:26;13.00;99.90
75262;DHT22;63859;51.064;4.580;2023-05-10T06:15:58;13.10;99.90
75262;DHT22;63859;51.064;4.580;2023-05-10T06:18:23;13.00;99.90
75262;DHT22;63859;51.064;4.580;2023-05-10T06:20:50;13.00;99.90
75262;DHT22;63859;51.064;4.580;2023-05-10T06:23:15;13.10;99.90
75262;DHT22;63859;51.064;4.580;2023-05-10T06:25:41;13.00;99.90
75262;DHT22;63859;51.064;4.580;2023-05-10T06:28:07;13.00;99.90
75262;DHT22;63859;51.064;4.580;2023-05-10T06:30:33;13.10;99.90
75262;DHT22;63859;51.064;4.580;2023-05-10T06:32:58;13.00;99.90
75262;DHT22;63859;51.064;4.580;2023-05-10T06:35:24;13.10;99.90
75262;DHT22;63859;51.064;4.580;2023-05-10T06:37:50;13.10;99.90
75262;DHT22;63859;51.064;4.580;2023-05-10T06:40:17;13.10;99.90
75262;DHT22;63859;51.064;4.580;2023-05-10T06:42:42;13.10;99.90
75262;DHT22;63859;51.064;4.580;2023-05-10T06:45:10;13.20;99.90
75262;DHT22;63859;51.064;4.580;2023-05-10T06:47:36;13.20;99.90
75262;DHT22;63859;51.064;4.580;2023-05-10T06:50:01;13.20;99.90
75262;DHT22;63859;51.064;4.580;2023-05-10T06:52:27;13.20;99.90
75262;DHT22;63859;51.064;4.580;2023-05-10T06:54:53;13.20;99.90
75262;DHT22;63859;51.064;4.580;2023-05-10T06:57:19;13.20;99.90
75262;DHT22;63859;51.064;4.580;2023-05-10T06:59:45;13.10;99.90
75262;DHT22;63859;51.064;4.580;2023-05-10T07:02:12;13.20;99.90
75262;DHT22;63859;51.064;4.580;2023-05-10T07:04:38;13.20;99.90
75262;DHT22;63859;51.064;4.580;2023-05-10T07:07:03;13.30;99.90
75262;DHT22;63859;51.064;4.580;2023-05-10T07:09:29;13.30;99.90
75262;DHT22;63859;51.064;4.580;2023-05-10T07:11:55;13.30;99.90
75262;DHT22;63859;51.064;4.580;2023-05-10T07:14:22;13.40;99.90
75262;DHT22;63859;51.064;4.580;2023-05-10T07:16:48;13.40;99.90
75262;DHT22;63859;51.064;4.580;2023-05-10T07:19:13;13.40;99.90
75262;DHT22;63859;51.064;4.580;2023-05-10T07:21:40;13.50;99.90
75262;DHT22;63859;51.064;4.580;2023-05-10T07:24:08;13.50;99.90
75262;DHT22;63859;51.064;4.580;2023-05-10T07:26:33;13.60;99.90
75262;DHT22;63859;51.064;4.580;2023-05-10T07:28:59;13.60;99.90
75262;DHT22;63859;51.064;4.580;2023-05-10T07:31:25;13.60;99.90
75262;DHT22;63859;51.064;4.580;2023-05-10T07:33:50;13.60;99.90
75262;DHT22;63859;51.064;4.580;2023-05-10T07:36:16;13.60;99.90
75262;DHT22;63859;51.064;4.580;2023-05-10T07:38:42;13.50;99.90
75262;DHT22;63859;51.064;4.580;2023-05-10T07:41:11;13.50;99.90
75262;DHT22;63859;51.064;4.580;2023-05-10T07:43:36;13.60;99.90
75262;DHT22;63859;51.064;4.580;2023-05-10T07:46:02;13.60;99.90
75262;DHT22;63859;51.064;4.580;2023-05-10T07:48:28;13.60;99.90
75262;DHT22;63859;51.064;4.580;2023-05-10T07:50:53;13.60;99.90
75262;DHT22;63859;51.064;4.580;2023-05-10T07:53:20;13.60;99.90
75262;DHT22;63859;51.064;4.580;2023-05-10T07:55:58;13.70;99.90
75262;DHT22;63859;51.064;4.580;2023-05-10T07:58:25;13.70;99.90
75262;DHT22;63859;51.064;4.580;2023-05-10T08:00:50;13.80;99.90
75262;DHT22;63859;51.064;4.580;2023-05-10T08:03:16;13.80;99.90
75262;DHT22;63859;51.064;4.580;2023-05-10T08:05:42;13.90;99.90
75262;DHT22;63859;51.064;4.580;2023-05-10T08:08:07;14.00;99.90
75262;DHT22;63859;51.064;4.580;2023-05-10T08:10:34;14.00;99.90
75262;DHT22;63859;51.064;4.580;2023-05-10T08:13:00;14.10;99.90
75262;DHT22;63859;51.064;4.580;2023-05-10T08:15:26;14.10;99.90
75262;DHT22;63859;51.064;4.580;2023-05-10T08:17:52;14.30;99.90
75262;DHT22;63859;51.064;4.580;2023-05-10T08:20:18;14.30;99.90
75262;DHT22;63859;51.064;4.580;2023-05-10T08:22:45;14.30;99.90
75262;DHT22;63859;51.064;4.580;2023-05-10T08:25:11;14.30;99.90
75262;DHT22;63859;51.064;4.580;2023-05-10T08:27:37;14.30;99.90
75262;DHT22;63859;51.064;4.580;2023-05-10T08:30:03;14.30;99.90
75262;DHT22;63859;51.064;4.580;2023-05-10T08:32:28;14.30;99.90
75262;DHT22;63859;51.064;4.580;2023-05-10T08:34:55;14.40;99.90
75262;DHT22;63859;51.064;4.580;2023-05-10T08:37:23;14.40;99.90
75262;DHT22;63859;51.064;4.580;2023-05-10T08:39:48;14.40;99.90
75262;DHT22;63859;51.064;4.580;2023-05-10T08:42:19;14.40;99.90
75262;DHT22;63859;51.064;4.580;2023-05-10T08:44:48;14.40;99.90
75262;DHT22;63859;51.064;4.580;2023-05-10T08:47:15;14.40;99.90
75262;DHT22;63859;51.064;4.580;2023-05-10T08:49:41;14.40;99.90
75262;DHT22;63859;51.064;4.580;2023-05-10T08:52:09;14.40;99.90
75262;DHT22;63859;51.064;4.580;2023-05-10T08:54:36;14.40;99.90
75262;DHT22;63859;51.064;4.580;2023-05-10T08:57:03;14.30;99.90
75262;DHT22;63859;51.064;4.580;2023-05-10T08:59:29;14.30;99.90
75262;DHT22;63859;51.064;4.580;2023-05-10T09:01:57;14.30;99.90
75262;DHT22;63859;51.064;4.580;2023-05-10T09:04:23;14.30;99.90
75262;DHT22;63859;51.064;4.580;2023-05-10T09:06:49;14.30;99.90
75262;DHT22;63859;51.064;4.580;2023-05-10T09:09:15;14.30;99.90
75262;DHT22;63859;51.064;4.580;2023-05-10T09:11:42;14.40;99.90
75262;DHT22;63859;51.064;4.580;2023-05-10T09:14:08;14.50;99.90
75262;DHT22;63859;51.064;4.580;2023-05-10T09:16:34;14.60;99.90
75262;DHT22;63859;51.064;4.580;2023-05-10T09:19:00;14.70;99.90
75262;DHT22;63859;51.064;4.580;2023-05-10T09:21:26;14.80;99.90
75262;DHT22;63859;51.064;4.580;2023-05-10T09:23:52;14.90;99.90
75262;DHT22;63859;51.064;4.580;2023-05-10T09:26:23;14.90;99.90
75262;DHT22;63859;51.064;4.580;2023-05-10T09:28:56;14.90;99.90
75262;DHT22;63859;51.064;4.580;2023-05-10T09:31:22;14.70;99.90
75262;DHT22;63859;51.064;4.580;2023-05-10T09:33:51;14.60;99.90
75262;DHT22;63859;51.064;4.580;2023-05-10T09:36:18;14.50;99.90
75262;DHT22;63859;51.064;4.580;2023-05-10T09:38:53;14.40;99.90
75262;DHT22;63859;51.064;4.580;2023-05-10T09:41:21;14.50;99.90
75262;DHT22;63859;51.064;4.580;2023-05-10T09:43:47;14.50;99.90
75262;DHT22;63859;51.064;4.580;2023-05-10T09:46:14;14.60;99.90
75262;DHT22;63859;51.064;4.580;2023-05-10T09:48:45;14.60;99.90
75262;DHT22;63859;51.064;4.580;2023-05-10T09:51:22;14.60;99.90
75262;DHT22;63859;51.064;4.580;2023-05-10T09:53:49;14.70;99.90
75262;DHT22;63859;51.064;4.580;2023-05-10T09:56:37;14.80;99.90
75262;DHT22;63859;51.064;4.580;2023-05-10T09:59:06;14.80;99.90
75262;DHT22;63859;51.064;4.580;2023-05-10T10:01:32;14.70;99.90
75262;DHT22;63859;51.064;4.580;2023-05-10T10:03:58;14.70;99.90
75262;DHT22;63859;51.064;4.580;2023-05-10T10:06:25;14.60;99.90
75262;DHT22;63859;51.064;4.580;2023-05-10T10:08:51;14.50;99.90
75262;DHT22;63859;51.064;4.580;2023-05-10T10:11:17;14.40;99.90
75262;DHT22;63859;51.064;4.580;2023-05-10T10:13:44;14.30;99.90
75262;DHT22;63859;51.064;4.580;2023-05-10T10:16:10;14.20;99.90
75262;DHT22;63859;51.064;4.580;2023-05-10T10:18:36;14.20;99.90
75262;DHT22;63859;51.064;4.580;2023-05-10T10:21:07;14.20;99.90
75262;DHT22;63859;51.064;4.580;2023-05-10T10:23:34;14.10;99.90
75262;DHT22;63859;51.064;4.580;2023-05-10T10:26:01;14.10;99.90
75262;DHT22;63859;51.064;4.580;2023-05-10T10:31:32;14.00;99.90
75262;DHT22;63859;51.064;4.580;2023-05-10T10:34:06;13.90;99.90
75262;DHT22;63859;51.064;4.580;2023-05-10T10:36:40;14.00;99.90
75262;DHT22;63859;51.064;4.580;2023-05-10T10:39:09;14.00;99.90
75262;DHT22;63859;51.064;4.580;2023-05-10T10:41:40;13.90;99.90
75262;DHT22;63859;51.064;4.580;2023-05-10T10:50:06;14.00;99.90
75262;DHT22;63859;51.064;4.580;2023-05-10T10:52:38;14.00;99.90
75262;DHT22;63859;51.064;4.580;2023-05-10T10:55:20;14.10;99.90
75262;DHT22;63859;51.064;4.580;2023-05-10T10:57:56;14.10;99.90
75262;DHT22;63859;51.064;4.580;2023-05-10T11:00:36;14.20;99.90
75262;DHT22;63859;51.064;4.580;2023-05-10T11:08:12;14.20;99.90
75262;DHT22;63859;51.064;4.580;2023-05-10T11:10:39;14.20;99.90
75262;DHT22;63859;51.064;4.580;2023-05-10T11:13:07;14.10;99.90
75262;DHT22;63859;51.064;4.580;2023-05-10T11:15:35;14.10;99.90
75262;DHT22;63859;51.064;4.580;2023-05-10T11:18:37;14.20;99.90
75262;DHT22;63859;51.064;4.580;2023-05-10T11:21:03;14.30;99.90
75262;DHT22;63859;51.064;4.580;2023-05-10T11:23:54;14.40;99.90
75262;DHT22;63859;51.064;4.580;2023-05-10T11:26:25;14.50;99.90
75262;DHT22;63859;51.064;4.580;2023-05-10T11:28:53;14.60;99.90
75262;DHT22;63859;51.064;4.580;2023-05-10T11:31:24;14.70;99.90
75262;DHT22;63859;51.064;4.580;2023-05-10T11:33:56;14.70;99.90
75262;DHT22;63859;51.064;4.580;2023-05-10T11:36:27;14.70;99.90
75262;DHT22;63859;51.064;4.580;2023-05-10T11:38:55;14.80;99.90
75262;DHT22;63859;51.064;4.580;2023-05-10T11:41:22;14.80;99.90
75262;DHT22;63859;51.064;4.580;2023-05-10T11:43:50;14.80;99.90
75262;DHT22;63859;51.064;4.580;2023-05-10T11:46:19;14.90;99.90
75262;DHT22;63859;51.064;4.580;2023-05-10T11:48:47;14.90;99.90
75262;DHT22;63859;51.064;4.580;2023-05-10T11:51:14;14.90;99.90
75262;DHT22;63859;51.064;4.580;2023-05-10T11:53:40;14.90;99.90
75262;DHT22;63859;51.064;4.580;2023-05-10T11:56:07;14.90;99.90
75262;DHT22;63859;51.064;4.580;2023-05-10T11:58:36;14.90;99.90
75262;DHT22;63859;51.064;4.580;2023-05-10T12:01:03;15.00;99.90
75262;DHT22;63859;51.064;4.580;2023-05-10T12:03:30;15.00;99.90
75262;DHT22;63859;51.064;4.580;2023-05-10T12:05:57;15.00;99.90
75262;DHT22;63859;51.064;4.580;2023-05-10T12:08:25;15.00;99.90
75262;DHT22;63859;51.064;4.580;2023-05-10T12:10:54;15.00;99.90
75262;DHT22;63859;51.064;4.580;2023-05-10T12:13:30;15.00;99.90
75262;DHT22;63859;51.064;4.580;2023-05-10T12:15:59;15.00;99.90
75262;DHT22;63859;51.064;4.580;2023-05-10T12:18:26;15.00;99.90
75262;DHT22;63859;51.064;4.580;2023-05-10T12:20:52;15.00;99.90
75262;DHT22;63859;51.064;4.580;2023-05-10T12:23:21;15.10;99.90
75262;DHT22;63859;51.064;4.580;2023-05-10T12:25:49;15.00;99.90
75262;DHT22;63859;51.064;4.580;2023-05-10T12:28:19;15.10;99.90
75262;DHT22;63859;51.064;4.580;2023-05-10T12:30:45;15.20;99.90
75262;DHT22;63859;51.064;4.580;2023-05-10T12:33:12;15.30;99.90
75262;DHT22;63859;51.064;4.580;2023-05-10T12:35:52;15.40;99.90
75262;DHT22;63859;51.064;4.580;2023-05-10T12:38:43;15.50;99.90
75262;DHT22;63859;51.064;4.580;2023-05-10T12:41:13;15.60;99.90
75262;DHT22;63859;51.064;4.580;2023-05-10T12:43:40;15.50;99.90
75262;DHT22;63859;51.064;4.580;2023-05-10T12:46:10;15.70;99.90
75262;DHT22;63859;51.064;4.580;2023-05-10T12:48:37;15.70;99.90
75262;DHT22;63859;51.064;4.580;2023-05-10T12:51:04;15.80;99.90
75262;DHT22;63859;51.064;4.580;2023-05-10T12:53:30;15.90;99.90
75262;DHT22;63859;51.064;4.580;2023-05-10T12:55:57;15.90;99.90
75262;DHT22;63859;51.064;4.580;2023-05-10T12:58:23;15.90;99.90
75262;DHT22;63859;51.064;4.580;2023-05-10T13:00:49;15.80;99.90
75262;DHT22;63859;51.064;4.580;2023-05-10T13:03:17;15.90;99.90
75262;DHT22;63859;51.064;4.580;2023-05-10T13:05:42;16.00;99.90
75262;DHT22;63859;51.064;4.580;2023-05-10T13:08:08;16.00;99.90
75262;DHT22;63859;51.064;4.580;2023-05-10T13:10:34;16.20;99.90
75262;DHT22;63859;51.064;4.580;2023-05-10T13:13:00;16.30;99.90
75262;DHT22;63859;51.064;4.580;2023-05-10T13:15:26;16.30;99.90
75262;DHT22;63859;51.064;4.580;2023-05-10T13:17:52;16.30;99.90
75262;DHT22;63859;51.064;4.580;2023-05-10T13:20:18;16.30;99.90
75262;DHT22;63859;51.064;4.580;2023-05-10T13:22:44;16.30;99.90
75262;DHT22;63859;51.064;4.580;2023-05-10T13:25:10;16.40;99.90
75262;DHT22;63859;51.064;4.580;2023-05-10T13:27:39;16.50;99.90
75262;DHT22;63859;51.064;4.580;2023-05-10T13:30:07;16.50;99.90
75262;DHT22;63859;51.064;4.580;2023-05-10T13:32:33;16.50;99.90
75262;DHT22;63859;51.064;4.580;2023-05-10T13:34:59;16.60;99.90
75262;DHT22;63859;51.064;4.580;2023-05-10T13:37:24;16.70;99.90
75262;DHT22;63859;51.064;4.580;2023-05-10T13:39:50;16.90;99.90
75262;DHT22;63859;51.064;4.580;2023-05-10T13:42:16;17.00;99.90
75262;DHT22;63859;51.064;4.580;2023-05-10T13:44:42;17.20;99.90
75262;DHT22;63859;51.064;4.580;2023-05-10T13:47:08;17.30;99.90
75262;DHT22;63859;51.064;4.580;2023-05-10T13:49:36;17.50;99.90
75262;DHT22;63859;51.064;4.580;2023-05-10T13:52:01;17.40;99.90
75262;DHT22;63859;51.064;4.580;2023-05-10T13:54:33;17.20;99.90
75262;DHT22;63859;51.064;4.580;2023-05-10T13:56:59;17.30;99.90
75262;DHT22;63859;51.064;4.580;2023-05-10T13:59:25;17.20;99.90
75262;DHT22;63859;51.064;4.580;2023-05-10T14:01:51;16.90;99.90
75262;DHT22;63859;51.064;4.580;2023-05-10T14:04:17;16.90;99.90
75262;DHT22;63859;51.064;4.580;2023-05-10T14:06:42;16.80;99.90
75262;DHT22;63859;51.064;4.580;2023-05-10T14:09:08;16.70;99.90
75262;DHT22;63859;51.064;4.580;2023-05-10T14:11:34;16.70;99.90
75262;DHT22;63859;51.064;4.580;2023-05-10T14:13:59;16.70;99.90
75262;DHT22;63859;51.064;4.580;2023-05-10T14:16:25;16.80;99.90
75262;DHT22;63859;51.064;4.580;2023-05-10T14:18:52;16.90;99.90
75262;DHT22;63859;51.064;4.580;2023-05-10T14:21:18;16.90;99.90
75262;DHT22;63859;51.064;4.580;2023-05-10T14:23:43;16.80;99.90
75262;DHT22;63859;51.064;4.580;2023-05-10T14:26:09;16.80;99.90
75262;DHT22;63859;51.064;4.580;2023-05-10T14:28:35;16.70;99.90
75262;DHT22;63859;51.064;4.580;2023-05-10T14:31:00;16.80;99.90
75262;DHT22;63859;51.064;4.580;2023-05-10T14:33:26;16.80;99.90
75262;DHT22;63859;51.064;4.580;2023-05-10T14:35:53;16.70;99.90
75262;DHT22;63859;51.064;4.580;2023-05-10T14:38:19;16.70;99.90
75262;DHT22;63859;51.064;4.580;2023-05-10T14:40:45;16.70;99.90
75262;DHT22;63859;51.064;4.580;2023-05-10T14:43:10;16.60;99.90
75262;DHT22;63859;51.064;4.580;2023-05-10T14:45:36;16.60;99.90
75262;DHT22;63859;51.064;4.580;2023-05-10T14:48:02;16.60;99.90
75262;DHT22;63859;51.064;4.580;2023-05-10T14:50:30;16.50;99.90
75262;DHT22;63859;51.064;4.580;2023-05-10T14:52:57;16.40;99.90
75262;DHT22;63859;51.064;4.580;2023-05-10T14:55:23;16.30;99.90
75262;DHT22;63859;51.064;4.580;2023-05-10T14:57:48;16.20;99.90
75262;DHT22;63859;51.064;4.580;2023-05-10T15:00:16;16.10;99.90
75262;DHT22;63859;51.064;4.580;2023-05-10T15:02:42;16.10;99.90
75262;DHT22;63859;51.064;4.580;2023-05-10T15:05:08;16.10;99.90
75262;DHT22;63859;51.064;4.580;2023-05-10T15:07:34;16.10;99.90
75262;DHT22;63859;51.064;4.580;2023-05-10T15:09:59;16.10;99.90
75262;DHT22;63859;51.064;4.580;2023-05-10T15:12:25;16.10;99.90
75262;DHT22;63859;51.064;4.580;2023-05-10T15:14:51;16.00;99.90
75262;DHT22;63859;51.064;4.580;2023-05-10T15:17:17;15.90;99.90
75262;DHT22;63859;51.064;4.580;2023-05-10T15:19:42;15.80;99.90
75262;DHT22;63859;51.064;4.580;2023-05-10T15:22:08;15.70;99.90
75262;DHT22;63859;51.064;4.580;2023-05-10T15:24:34;15.80;99.90
75262;DHT22;63859;51.064;4.580;2023-05-10T15:27:00;15.70;99.90
75262;DHT22;63859;51.064;4.580;2023-05-10T15:29:26;15.70;99.90
75262;DHT22;63859;51.064;4.580;2023-05-10T15:31:52;15.60;99.90
75262;DHT22;63859;51.064;4.580;2023-05-10T15:34:19;15.60;99.90
75262;DHT22;63859;51.064;4.580;2023-05-10T15:36:45;15.40;99.90
75262;DHT22;63859;51.064;4.580;2023-05-10T15:39:11;15.40;99.90
75262;DHT22;63859;51.064;4.580;2023-05-10T15:41:37;15.40;99.90
75262;DHT22;63859;51.064;4.580;2023-05-10T15:44:03;15.40;99.90
75262;DHT22;63859;51.064;4.580;2023-05-10T15:46:29;15.30;99.90
75262;DHT22;63859;51.064;4.580;2023-05-10T15:48:55;15.20;99.90
75262;DHT22;63859;51.064;4.580;2023-05-10T15:51:21;15.20;99.90
75262;DHT22;63859;51.064;4.580;2023-05-10T15:53:47;15.10;99.90
75262;DHT22;63859;51.064;4.580;2023-05-10T15:56:13;15.10;99.90
75262;DHT22;63859;51.064;4.580;2023-05-10T15:58:39;15.10;99.90